createdAt,value
2019-05-11T00:03:44.682Z,97480.58
2019-05-11T00:06:18.948Z,97483.91
2019-05-11T00:08:53.392Z,97484.25
2019-05-11T00:11:27.952Z,97480.03
2019-05-11T00:14:02.286Z,97463.24
2019-05-11T00:16:36.740Z,97449.68
2019-05-11T00:19:11.116Z,97449.06
2019-05-11T00:21:45.667Z,97441.13
2019-05-11T00:24:20.130Z,97441.13
2019-05-11T00:26:54.699Z,97428.03
2019-05-11T00:29:28.955Z,97428.25
2019-05-11T00:32:03.666Z,97423.33
2019-05-11T00:34:37.963Z,97414.39
2019-05-11T00:37:12.323Z,97416.03
2019-05-11T00:39:46.838Z,97414.50
2019-05-11T00:42:19.695Z,97418.38
2019-05-11T00:44:53.872Z,97419.28
2019-05-11T00:47:27.861Z,97414.64
2019-05-11T00:50:01.958Z,97414.64
2019-05-11T00:52:36.336Z,97407.77
2019-05-11T00:55:11.298Z,97407.77
2019-05-11T00:57:45.720Z,97411.16
2019-05-11T01:00:18.860Z,97412.41
2019-05-11T01:02:52.944Z,97413.17
2019-05-11T01:05:28.949Z,97416.81
2019-05-11T01:08:03.383Z,97423.84
2019-05-11T01:10:42.074Z,97423.84
2019-05-11T01:13:13.869Z,97425.59
2019-05-11T01:15:47.067Z,97418.30
2019-05-11T01:18:22.302Z,97418.30
2019-05-11T01:20:56.717Z,97401.45
2019-05-11T01:23:29.687Z,97395.17
2019-05-11T01:26:03.933Z,97391.02
2019-05-11T01:28:38.281Z,97388.38
2019-05-11T01:31:12.661Z,97389.38
2019-05-11T01:33:47.119Z,97392.00
2019-05-11T01:36:21.770Z,97401.42
2019-05-11T01:38:56.133Z,97401.42
2019-05-11T01:41:30.657Z,97398.94
2019-05-11T01:44:05.138Z,97404.96
2019-05-11T01:46:39.699Z,97405.44
2019-05-11T01:49:14.123Z,97405.44
2019-05-11T01:51:48.305Z,97403.58
2019-05-11T01:54:22.681Z,97403.58
2019-05-11T01:56:57.126Z,97399.07
2019-05-11T01:59:31.623Z,97385.13
2019-05-11T02:02:06.110Z,97375.02
2019-05-11T02:04:40.648Z,97364.64
2019-05-11T02:07:15.074Z,97364.64
2019-05-11T02:09:49.668Z,97341.64
2019-05-11T02:12:23.953Z,97341.64
2019-05-11T02:14:58.311Z,97330.69
2019-05-11T02:17:32.756Z,97330.69
2019-05-11T02:20:06.041Z,97330.41
2019-05-11T02:22:39.864Z,97332.98
2019-05-11T02:25:14.278Z,97347.41
2019-05-11T02:27:48.719Z,97352.41
2019-05-11T02:30:23.259Z,97359.11
2019-05-11T02:33:00.645Z,97355.34
2019-05-11T02:35:33.703Z,97353.70
2019-05-11T02:38:07.770Z,97350.50
2019-05-11T02:40:42.120Z,97337.77
2019-05-11T02:43:16.598Z,97332.73
2019-05-11T02:45:51.066Z,97332.73
2019-05-11T02:48:25.602Z,97324.47
2019-05-11T02:51:00.319Z,97324.47
2019-05-11T02:53:36.716Z,97326.28
2019-05-11T02:56:10.943Z,97318.52
2019-05-11T02:58:46.251Z,97333.40
2019-05-11T03:01:21.720Z,97328.33
2019-05-11T03:03:56.064Z,97330.41
2019-05-11T03:06:30.317Z,97322.25
2019-05-11T03:09:06.267Z,97322.25
2019-05-11T03:11:54.968Z,97329.86
2019-05-11T03:14:16.894Z,97332.63
2019-05-11T03:16:52.663Z,97337.84
2019-05-11T03:19:26.936Z,97329.52
2019-05-11T03:22:01.122Z,97331.05
2019-05-11T03:24:35.607Z,97314.23
2019-05-11T03:27:09.934Z,97317.06
2019-05-11T03:29:44.282Z,97317.06
2019-05-11T03:32:18.730Z,97316.44
2019-05-11T03:34:52.949Z,97321.22
2019-05-11T03:37:27.343Z,97315.81
2019-05-11T03:42:41.099Z,97314.34
2019-05-11T03:45:14.565Z,97316.06
2019-05-11T03:47:48.891Z,97302.41
2019-05-11T03:50:23.278Z,97313.48
2019-05-11T03:52:57.610Z,97313.48
2019-05-11T03:55:31.950Z,97317.08
2019-05-11T03:58:07.277Z,97321.34
2019-05-11T04:00:41.745Z,97322.48
2019-05-11T04:03:14.647Z,97323.97
2019-05-11T04:05:48.863Z,97316.74
2019-05-11T04:08:21.853Z,97316.74
2019-05-11T04:10:55.942Z,97317.55
2019-05-11T04:13:30.246Z,97317.18
2019-05-11T04:16:04.640Z,97315.63
2019-05-11T04:18:38.932Z,97308.78
2019-05-11T04:21:13.279Z,97312.94
2019-05-11T04:23:48.753Z,97317.55
2019-05-11T04:26:23.011Z,97317.55
2019-05-11T04:28:57.333Z,97323.94
2019-05-11T04:31:31.870Z,97320.97
2019-05-11T04:34:04.861Z,97321.56
2019-05-11T04:36:39.122Z,97317.44
2019-05-11T04:39:13.711Z,97309.91
2019-05-11T04:41:47.923Z,97296.54
2019-05-11T04:44:22.270Z,97300.84
2019-05-11T04:46:56.675Z,97306.53
2019-05-11T04:49:31.012Z,97301.36
2019-05-11T04:52:05.334Z,97285.70
2019-05-11T04:54:39.707Z,97285.70
2019-05-11T04:57:15.115Z,97289.59
2019-05-11T04:59:49.670Z,97296.81
2019-05-11T05:02:27.177Z,97296.81
2019-05-11T05:05:00.033Z,97290.52
2019-05-11T05:07:34.303Z,97288.27
2019-05-11T05:10:09.060Z,97288.27
2019-05-11T05:12:50.479Z,97277.78
2019-05-11T05:15:19.314Z,97277.78
2019-05-11T05:17:53.682Z,97268.80
2019-05-11T05:20:27.941Z,97268.47
2019-05-11T05:23:00.654Z,97269.09
2019-05-11T05:25:34.935Z,97260.52
2019-05-11T05:28:09.271Z,97253.09
2019-05-11T05:30:43.940Z,97253.92
2019-05-11T05:33:16.856Z,97256.45
2019-05-11T05:35:50.941Z,97258.59
2019-05-11T05:38:25.262Z,97259.97
2019-05-11T05:40:59.633Z,97261.98
2019-05-11T05:43:33.942Z,97256.20
2019-05-11T05:46:09.273Z,97262.05
2019-05-11T05:48:43.689Z,97264.23
2019-05-11T05:51:17.929Z,97260.84
2019-05-11T05:53:50.982Z,97272.87
2019-05-11T05:56:23.692Z,97274.73
2019-05-11T05:58:57.926Z,97270.23
2019-05-11T06:01:30.982Z,97267.17
2019-05-11T06:04:03.799Z,97265.44
2019-05-11T06:06:37.998Z,97255.98
2019-05-11T06:09:12.341Z,97257.11
2019-05-11T06:11:46.654Z,97249.17
2019-05-11T06:14:20.946Z,97258.80
2019-05-11T06:16:54.050Z,97262.47
2019-05-11T06:19:28.337Z,97259.42
2019-05-11T06:22:02.894Z,97256.02
2019-05-11T06:24:35.861Z,97253.62
2019-05-11T06:27:09.947Z,97256.64
2019-05-11T06:29:42.862Z,97256.28
2019-05-11T06:32:16.945Z,97245.15
2019-05-11T06:34:49.838Z,97247.80
2019-05-11T06:37:24.109Z,97243.48
2019-05-11T06:39:58.658Z,97243.64
2019-05-11T06:42:33.122Z,97243.64
2019-05-11T06:45:08.685Z,97243.64
2019-05-11T06:47:43.093Z,97251.48
2019-05-11T06:50:17.857Z,97249.19
2019-05-11T06:52:50.857Z,97254.26
2019-05-11T06:55:25.200Z,97259.19
2019-05-11T06:57:59.620Z,97264.85
2019-05-11T07:00:33.946Z,97264.85
2019-05-11T07:03:06.871Z,97262.33
2019-05-11T07:05:41.288Z,97259.27
2019-05-11T07:08:15.736Z,97260.92
2019-05-11T07:10:49.947Z,97266.71
2019-05-11T07:13:24.267Z,97261.14
2019-05-11T07:15:58.713Z,97268.36
2019-05-11T07:18:31.651Z,97262.41
2019-05-11T07:21:05.935Z,97263.70
2019-05-11T07:23:38.890Z,97267.88
2019-05-11T07:26:11.670Z,97268.78
2019-05-11T07:28:45.890Z,97264.84
2019-05-11T07:31:21.103Z,97258.91
2019-05-11T07:33:55.291Z,97250.17
2019-05-11T07:36:29.866Z,97250.17
2019-05-11T07:39:02.991Z,97263.94
2019-05-11T07:41:35.781Z,97260.53
2019-05-11T07:44:10.218Z,97268.38
2019-05-11T07:46:44.837Z,97261.55
2019-05-11T07:49:19.248Z,97262.81
2019-05-11T07:51:54.276Z,97253.70
2019-05-11T07:54:28.707Z,97253.21
2019-05-11T07:57:01.928Z,97251.05
2019-05-11T07:59:34.861Z,97250.91
2019-05-11T08:02:09.068Z,97246.61
2019-05-11T08:04:43.633Z,97248.00
2019-05-11T08:07:18.251Z,97248.00
2019-05-11T08:09:52.761Z,97253.20
2019-05-11T08:12:28.273Z,97252.44
2019-05-11T08:15:09.015Z,97253.33
2019-05-11T08:17:38.176Z,97259.75
2019-05-11T08:20:13.663Z,97242.70
2019-05-11T08:22:48.366Z,97237.02
2019-05-11T08:25:23.943Z,97236.03
2019-05-11T08:27:58.936Z,97225.77
2019-05-11T08:30:33.702Z,97215.55
2019-05-11T08:33:08.650Z,97215.55
2019-05-11T08:35:41.855Z,97204.55
2019-05-11T08:38:18.019Z,97202.53
2019-05-11T08:40:52.304Z,97202.90
2019-05-11T08:43:28.509Z,97205.18
2019-05-11T08:46:02.863Z,97203.03
2019-05-11T08:48:38.829Z,97202.27
2019-05-11T08:51:13.321Z,97191.67
2019-05-11T08:53:48.260Z,97181.17
2019-05-11T08:56:22.789Z,97181.04
2019-05-11T08:58:58.845Z,97190.15
2019-05-11T09:01:33.661Z,97185.58
2019-05-11T09:04:08.968Z,97185.58
2019-05-11T09:06:43.647Z,97181.67
2019-05-11T09:09:18.255Z,97187.86
2019-05-11T09:11:52.680Z,97204.05
2019-05-11T09:14:28.389Z,97217.44
2019-05-11T09:17:02.939Z,97221.37
2019-05-11T09:19:38.825Z,97216.56
2019-05-11T09:22:13.357Z,97208.45
2019-05-11T09:24:47.963Z,97199.84
2019-05-11T09:27:22.406Z,97201.23
2019-05-11T09:29:58.675Z,97207.55
2019-05-11T09:32:33.868Z,97192.16
2019-05-11T09:35:29.203Z,97186.48
2019-05-11T09:39:38.352Z,97194.55
2019-05-11T09:42:12.820Z,97193.42
2019-05-11T09:44:48.576Z,97193.42
2019-05-11T09:47:24.289Z,97194.42
2019-05-11T09:49:58.924Z,97182.30
2019-05-11T09:52:33.268Z,97176.48
2019-05-11T09:55:08.736Z,97174.22
2019-05-11T09:57:43.711Z,97174.22
2019-05-11T10:00:18.277Z,97167.38
2019-05-11T10:02:53.272Z,97162.44
2019-05-11T10:05:29.275Z,97169.16
2019-05-11T10:08:03.940Z,97160.95
2019-05-11T10:10:38.537Z,97160.19
2019-05-11T10:13:13.285Z,97156.38
2019-05-11T10:16:00.996Z,97161.81
2019-05-11T10:18:25.252Z,97162.44
2019-05-11T10:20:59.924Z,97163.47
2019-05-11T10:23:34.406Z,97166.37
2019-05-11T10:27:30.009Z,97174.32
2019-05-11T10:30:04.689Z,97168.89
2019-05-11T10:32:40.380Z,97166.23
2019-05-11T10:35:14.882Z,97166.23
2019-05-11T10:37:48.116Z,97163.59
2019-05-11T10:40:22.303Z,97157.14
2019-05-11T10:42:58.795Z,97164.09
2019-05-11T10:45:32.848Z,97150.06
2019-05-11T10:48:08.790Z,97143.25
2019-05-11T10:50:43.337Z,97148.41
2019-05-11T10:53:18.519Z,97134.27
2019-05-11T10:55:53.352Z,97138.05
2019-05-11T10:58:28.872Z,97135.17
2019-05-11T11:01:01.859Z,97133.64
2019-05-11T11:03:34.697Z,97138.57
2019-05-11T11:06:08.948Z,97132.85
2019-05-11T11:08:43.332Z,97132.85
2019-05-11T11:11:18.452Z,97126.79
2019-05-11T11:13:53.126Z,97120.33
2019-05-11T11:16:36.888Z,97111.72
2019-05-11T11:19:03.906Z,97116.52
2019-05-11T11:21:38.478Z,97110.55
2019-05-11T11:26:08.227Z,97105.77
2019-05-11T11:28:42.328Z,97105.55
2019-05-11T11:31:18.774Z,97100.77
2019-05-11T11:33:55.514Z,97097.27
2019-05-11T11:36:29.259Z,97101.14
2019-05-11T11:39:05.118Z,97094.28
2019-05-11T11:41:39.637Z,97089.19
2019-05-11T11:44:13.957Z,97089.19
2019-05-11T11:46:54.653Z,97096.53
2019-05-11T11:49:24.277Z,97092.15
2019-05-11T11:51:58.723Z,97086.13
2019-05-11T11:54:33.045Z,97088.00
2019-05-11T11:57:07.825Z,97078.14
2019-05-11T11:59:42.286Z,97078.14
2019-05-11T12:02:18.850Z,97077.15
2019-05-11T12:04:52.704Z,97073.55
2019-05-11T12:07:28.563Z,97071.15
2019-05-11T12:10:02.941Z,97071.48
2019-05-11T12:12:38.671Z,97071.48
2019-05-11T12:15:12.281Z,97076.51
2019-05-11T12:17:48.286Z,97078.96
2019-05-11T12:20:23.764Z,97078.96
2019-05-11T12:22:58.731Z,97084.11
2019-05-11T12:25:32.616Z,97084.22
2019-05-11T12:28:08.026Z,97084.61
2019-05-11T12:30:42.666Z,97078.73
2019-05-11T12:33:18.716Z,97078.73
2019-05-11T12:35:52.369Z,97092.78
2019-05-11T12:38:27.704Z,97084.59
2019-05-11T12:41:00.693Z,97084.59
2019-05-11T12:43:34.946Z,97088.39
2019-05-11T12:46:09.139Z,97071.43
2019-05-11T12:48:43.653Z,97081.75
2019-05-11T12:51:18.654Z,97081.75
2019-05-11T12:53:51.838Z,97092.83
2019-05-11T12:56:27.702Z,97087.20
2019-05-11T12:59:02.117Z,97091.34
2019-05-11T13:01:38.232Z,97088.31
2019-05-11T13:04:12.862Z,97088.31
2019-05-11T13:06:47.871Z,97090.46
2019-05-11T13:09:22.698Z,97086.71
2019-05-11T13:11:58.809Z,97095.05
2019-05-11T13:14:32.930Z,97096.64
2019-05-11T13:17:07.820Z,97096.22
2019-05-11T13:19:42.269Z,97095.67
2019-05-11T13:22:18.334Z,97104.06
2019-05-11T13:24:52.936Z,97104.06
2019-05-11T13:27:29.939Z,97104.88
2019-05-11T13:30:04.267Z,97107.55
2019-05-11T13:32:38.745Z,97101.30
2019-05-11T13:35:11.778Z,97096.14
2019-05-11T13:37:48.010Z,97098.94
2019-05-11T13:40:20.863Z,97105.17
2019-05-11T13:42:54.257Z,97101.20
2019-05-11T13:45:28.701Z,97100.53
2019-05-11T13:48:03.931Z,97104.44
2019-05-11T13:50:38.764Z,97104.44
2019-05-11T13:53:11.759Z,97109.59
2019-05-11T13:55:48.145Z,97110.41
2019-05-11T13:58:22.276Z,97114.95
2019-05-11T14:00:58.483Z,97111.95
2019-05-11T14:03:32.782Z,97120.13
2019-05-11T14:06:08.725Z,97127.92
2019-05-11T14:08:41.858Z,97127.18
2019-05-11T14:11:18.282Z,97137.03
2019-05-11T14:13:52.938Z,97137.03
2019-05-11T14:16:27.795Z,97141.01
2019-05-11T14:19:02.270Z,97141.01
2019-05-11T14:21:38.448Z,97137.61
2019-05-11T14:24:12.871Z,97147.84
2019-05-11T14:26:45.835Z,97135.54
2019-05-11T14:29:21.073Z,97140.94
2019-05-11T14:31:57.756Z,97150.85
2019-05-11T14:34:31.706Z,97151.04
2019-05-11T14:37:08.594Z,97151.04
2019-05-11T14:39:42.291Z,97148.58
2019-05-11T14:42:21.945Z,97153.45
2019-05-11T14:44:52.752Z,97168.81
2019-05-11T14:47:28.278Z,97168.81
2019-05-11T14:50:02.909Z,97168.95
2019-05-11T14:52:38.869Z,97176.39
2019-05-11T14:55:13.677Z,97186.68
2019-05-11T14:57:48.724Z,97186.68
2019-05-11T15:00:23.383Z,97198.73
2019-05-11T15:02:58.460Z,97194.17
2019-05-11T15:05:32.930Z,97198.97
2019-05-11T15:08:08.741Z,97203.94
2019-05-11T15:10:43.275Z,97203.94
2019-05-11T15:13:18.519Z,97211.50
2019-05-11T15:15:51.705Z,97220.80
2019-05-11T15:18:36.068Z,97230.80
2019-05-11T15:21:01.955Z,97228.77
2019-05-11T15:23:37.846Z,97236.94
2019-05-11T15:26:12.657Z,97235.16
2019-05-11T15:28:48.581Z,97235.16
2019-05-11T15:31:23.271Z,97228.89
2019-05-11T15:33:57.841Z,97236.94
2019-05-11T15:36:30.855Z,97233.79
2019-05-11T15:39:08.255Z,97234.55
2019-05-11T15:41:42.671Z,97239.58
2019-05-11T15:44:18.242Z,97239.03
2019-05-11T15:46:52.875Z,97242.50
2019-05-11T15:49:28.384Z,97242.30
2019-05-11T15:52:02.936Z,97242.30
2019-05-11T15:54:35.855Z,97246.64
2019-05-11T15:57:09.943Z,97259.68
2019-05-11T15:59:44.533Z,97271.36
2019-05-11T16:02:18.883Z,97273.70
2019-05-11T16:04:51.842Z,97272.82
2019-05-11T16:07:28.159Z,97268.62
2019-05-11T16:10:02.272Z,97264.80
2019-05-11T16:12:39.021Z,97278.72
2019-05-11T16:15:13.505Z,97287.25
2019-05-11T16:17:48.634Z,97289.09
2019-05-11T16:20:21.690Z,97278.78
2019-05-11T16:22:55.927Z,97291.81
2019-05-11T16:25:28.852Z,97300.35
2019-05-11T16:28:01.695Z,97293.97
2019-05-11T16:30:37.825Z,97289.06
2019-05-11T16:33:11.793Z,97304.53
2019-05-11T16:35:46.124Z,97303.91
2019-05-11T16:38:20.687Z,97312.66
2019-05-11T16:40:54.937Z,97323.66
2019-05-11T16:43:28.180Z,97328.86
2019-05-11T16:46:02.330Z,97325.39
2019-05-11T16:48:38.333Z,97325.39
2019-05-11T16:51:12.941Z,97335.28
2019-05-11T16:53:48.066Z,97339.22
2019-05-11T16:56:22.666Z,97354.58
2019-05-11T16:58:58.930Z,97359.64
2019-05-11T17:01:33.293Z,97358.91
2019-05-11T17:04:07.670Z,97362.45
2019-05-11T17:06:42.131Z,97362.86
2019-05-11T17:09:18.043Z,97376.19
2019-05-11T17:11:52.685Z,97379.23
2019-05-11T17:14:28.178Z,97379.23
2019-05-11T17:17:02.730Z,97384.19
2019-05-11T17:19:43.688Z,97389.91
2019-05-11T17:22:12.899Z,97389.91
2019-05-11T17:24:48.453Z,97394.59
2019-05-11T17:27:22.948Z,97391.69
2019-05-11T17:29:55.854Z,97401.08
2019-05-11T17:32:30.152Z,97402.08
2019-05-11T17:35:04.346Z,97406.12
2019-05-11T17:37:38.774Z,97406.12
2019-05-11T17:40:12.072Z,97410.30
2019-05-11T17:42:48.005Z,97412.72
2019-05-11T17:45:22.349Z,97418.53
2019-05-11T17:47:58.271Z,97418.53
2019-05-11T17:50:32.796Z,97416.50
2019-05-11T17:53:05.668Z,97430.20
2019-05-11T17:55:40.251Z,97432.33
2019-05-11T17:58:15.240Z,97438.16
2019-05-11T18:00:49.669Z,97438.16
2019-05-11T18:03:24.279Z,97447.90
2019-05-11T18:05:59.764Z,97447.25
2019-05-11T18:08:34.127Z,97454.34
2019-05-11T18:11:08.727Z,97466.48
2019-05-11T18:13:45.280Z,97466.48
2019-05-11T18:16:19.915Z,97478.88
2019-05-11T18:18:54.304Z,97478.88
2019-05-11T18:21:28.957Z,97493.20
2019-05-11T18:24:03.283Z,97498.49
2019-05-11T18:26:38.311Z,97513.80
2019-05-11T18:29:12.918Z,97522.88
2019-05-11T18:31:45.684Z,97522.88
2019-05-11T18:34:19.933Z,97526.50
2019-05-11T18:36:54.103Z,97544.88
2019-05-11T18:39:28.983Z,97540.79
2019-05-11T18:42:03.335Z,97541.31
2019-05-11T18:44:38.085Z,97541.31
2019-05-11T18:47:13.979Z,97537.38
2019-05-11T18:49:50.587Z,97537.48
2019-05-11T18:52:29.943Z,97544.97
2019-05-11T18:55:08.419Z,97544.97
2019-05-11T18:57:45.319Z,97544.97
2019-05-11T19:00:22.982Z,97553.91
2019-05-11T19:03:00.346Z,97551.75
2019-05-11T19:05:39.293Z,97556.25
2019-05-11T19:08:13.899Z,97561.42
2019-05-11T19:10:48.833Z,97573.39
2019-05-11T19:13:24.974Z,97578.52
2019-05-11T19:15:59.713Z,97580.60
2019-05-11T19:18:42.844Z,97580.60
2019-05-11T19:24:06.042Z,97581.62
2019-05-11T19:27:50.667Z,97590.69
2019-05-11T19:30:28.784Z,97590.69
2019-05-11T19:33:10.747Z,97590.41
2019-05-11T19:35:43.430Z,97588.97
2019-05-11T19:38:19.106Z,97596.41
2019-05-11T19:40:58.843Z,97607.89
2019-05-11T19:43:35.570Z,97624.09
2019-05-11T19:46:12.305Z,97634.38
2019-05-11T19:48:48.328Z,97634.38
2019-05-11T19:51:24.316Z,97635.86
2019-05-11T19:54:00.972Z,97648.65
2019-05-11T19:56:38.309Z,97647.80
2019-05-11T19:59:14.570Z,97649.89
2019-05-11T20:01:51.420Z,97659.62
2019-05-11T20:04:28.374Z,97665.11
2019-05-11T20:07:04.307Z,97679.80
2019-05-11T20:09:41.297Z,97691.95
2019-05-11T20:12:18.313Z,97688.34
2019-05-11T20:14:54.305Z,97705.72
2019-05-11T20:17:30.986Z,97715.37
2019-05-11T20:20:08.918Z,97716.90
2019-05-11T20:22:44.544Z,97733.34
2019-05-11T20:25:23.065Z,97733.34
2019-05-11T20:27:59.429Z,97743.61
2019-05-11T20:30:37.288Z,97737.70
2019-05-11T20:33:13.408Z,97751.54
2019-05-11T20:35:49.707Z,97756.66
2019-05-11T20:38:25.272Z,97764.00
2019-05-11T20:41:02.979Z,97777.74
2019-05-11T20:43:41.270Z,97789.69
2019-05-11T20:46:19.684Z,97789.69
2019-05-11T20:48:53.403Z,97790.45
2019-05-11T20:51:35.789Z,97797.72
2019-05-11T20:54:08.849Z,97805.64
2019-05-11T20:56:47.849Z,97804.72
2019-05-11T20:59:28.774Z,97811.94
2019-05-11T21:02:03.599Z,97811.94
2019-05-11T21:04:38.629Z,97810.11
2019-05-11T21:07:13.108Z,97808.25
2019-05-11T21:09:48.338Z,97816.05
2019-05-11T21:12:22.877Z,97816.05
2019-05-11T21:14:58.412Z,97819.44
2019-05-11T21:17:32.962Z,97822.72
2019-05-11T21:20:08.327Z,97828.53
2019-05-11T21:22:42.696Z,97836.30
2019-05-11T21:25:18.183Z,97841.61
2019-05-11T21:27:52.698Z,97841.38
2019-05-11T21:30:27.125Z,97847.94
2019-05-11T21:33:02.704Z,97848.51
2019-05-11T21:35:38.630Z,97863.05
2019-05-11T21:38:11.646Z,97861.69
2019-05-11T21:40:48.408Z,97871.22
2019-05-11T21:43:22.326Z,97867.68
2019-05-11T21:45:58.203Z,97879.09
2019-05-11T21:48:32.750Z,97882.39
2019-05-11T21:51:05.685Z,97885.68
2019-05-11T21:53:40.941Z,97893.58
2019-05-11T21:56:15.126Z,97891.64
2019-05-11T21:58:49.597Z,97911.86
2019-05-11T22:01:23.900Z,97911.86
2019-05-11T22:03:59.519Z,97906.31
2019-05-11T22:06:34.084Z,97915.61
2019-05-11T22:09:09.806Z,97924.31
2019-05-11T22:11:42.779Z,97924.31
2019-05-11T22:14:16.933Z,97937.56
2019-05-11T22:16:50.053Z,97937.56
2019-05-11T22:19:23.846Z,97939.14
2019-05-11T22:21:58.389Z,97939.03
2019-05-11T22:24:32.878Z,97947.22
2019-05-11T22:27:08.044Z,97940.48
2019-05-11T22:29:41.665Z,97943.41
2019-05-11T22:32:17.862Z,97945.44
2019-05-11T22:34:50.868Z,97945.44
2019-05-11T22:37:24.945Z,97964.86
2019-05-11T22:39:57.897Z,97973.02
2019-05-11T22:42:30.880Z,97983.64
2019-05-11T22:45:05.289Z,97973.66
2019-05-11T22:47:39.867Z,97982.79
2019-05-11T22:50:12.870Z,97989.22
2019-05-11T22:52:48.409Z,97998.61
2019-05-11T22:55:22.896Z,98006.61
2019-05-11T22:57:57.855Z,98006.79
2019-05-11T23:00:44.291Z,98012.81
2019-05-11T23:03:19.902Z,98017.28
2019-05-11T23:05:54.776Z,98026.05
2019-05-11T23:08:29.277Z,98040.20
2019-05-11T23:11:03.736Z,98038.98
2019-05-11T23:13:38.319Z,98041.48
2019-05-11T23:16:12.672Z,98041.48
2019-05-11T23:18:48.121Z,98042.37
2019-05-11T23:21:22.668Z,98036.22
2019-05-11T23:23:58.347Z,98044.85
2019-05-11T23:26:32.786Z,98050.23
2019-05-11T23:29:08.145Z,98061.31
2019-05-11T23:31:42.652Z,98065.00
2019-05-11T23:34:17.691Z,98073.16
2019-05-11T23:36:50.977Z,98077.30
2019-05-11T23:39:24.274Z,98089.63
2019-05-11T23:41:58.713Z,98085.14
2019-05-11T23:44:33.283Z,98085.14
2019-05-11T23:47:07.650Z,98089.45
2019-05-11T23:49:42.299Z,98089.45
2019-05-11T23:52:18.109Z,98088.08
2019-05-11T23:54:52.312Z,98096.83
2019-05-11T23:57:26.887Z,98092.69
